createdAt,value
2019-02-18T00:00:28.497Z,544.50
2019-02-18T00:03:07.825Z,376.50
2019-02-18T00:05:44.908Z,315.92
2019-02-18T00:08:21.998Z,305.07
2019-02-18T00:10:59.082Z,457.35
2019-02-18T00:13:36.160Z,548.55
2019-02-18T00:16:13.249Z,508.18
2019-02-18T00:18:51.044Z,415.25
2019-02-18T00:21:28.327Z,535.30
2019-02-18T00:24:05.420Z,509.15
2019-02-18T00:26:42.498Z,460.93
2019-02-18T00:29:19.582Z,366.05
2019-02-18T00:31:56.768Z,327.82
2019-02-18T00:34:34.155Z,345.33
2019-02-18T00:37:11.236Z,381.10
2019-02-18T00:39:48.315Z,345.97
2019-02-18T00:42:25.607Z,347.90
2019-02-18T00:45:03.091Z,332.20
2019-02-18T00:47:40.390Z,280.95
2019-02-18T00:50:17.986Z,274.10
2019-02-18T00:52:56.092Z,292.43
2019-02-18T00:55:33.162Z,328.73
2019-02-18T00:58:10.144Z,368.82
2019-02-18T01:00:47.337Z,348.25
2019-02-18T01:03:24.419Z,336.15
2019-02-18T01:06:01.502Z,322.50
2019-02-18T01:08:38.587Z,275.27
2019-02-18T01:11:15.659Z,244.07
2019-02-18T01:13:52.762Z,256.50
2019-02-18T01:16:29.834Z,251.20
2019-02-18T01:19:06.923Z,244.22
2019-02-18T01:21:43.994Z,232.22
2019-02-18T01:24:21.386Z,233.23
2019-02-18T01:26:58.980Z,242.15
2019-02-18T01:29:36.068Z,235.25
2019-02-18T01:32:13.036Z,242.05
2019-02-18T01:34:50.628Z,231.97
2019-02-18T01:37:27.623Z,225.60
2019-02-18T01:40:06.445Z,234.60
2019-02-18T01:42:43.623Z,233.17
2019-02-18T01:45:21.739Z,230.90
2019-02-18T01:47:58.711Z,217.43
2019-02-18T01:50:35.890Z,214.45
2019-02-18T01:53:14.104Z,209.65
2019-02-18T01:55:51.189Z,218.33
2019-02-18T01:58:29.189Z,212.50
2019-02-18T02:01:06.672Z,213.65
2019-02-18T02:03:43.883Z,224.20
2019-02-18T02:06:20.955Z,230.45
2019-02-18T02:08:58.037Z,222.52
2019-02-18T02:11:35.316Z,218.00
2019-02-18T02:14:12.296Z,202.95
2019-02-18T02:16:49.386Z,206.95
2019-02-18T02:19:26.667Z,203.67
2019-02-18T02:22:03.757Z,198.72
2019-02-18T02:24:40.850Z,201.07
2019-02-18T02:27:17.770Z,204.72
2019-02-18T02:29:54.902Z,215.90
2019-02-18T02:32:31.890Z,194.37
2019-02-18T02:35:09.595Z,195.87
2019-02-18T02:37:46.679Z,183.80
2019-02-18T02:40:23.755Z,190.47
2019-02-18T02:43:00.730Z,181.12
2019-02-18T02:45:37.814Z,183.60
2019-02-18T02:48:14.791Z,174.25
2019-02-18T02:50:51.868Z,179.15
2019-02-18T02:53:28.858Z,182.12
2019-02-18T02:56:05.928Z,192.18
2019-02-18T02:58:42.932Z,184.15
2019-02-18T03:01:20.107Z,190.35
2019-02-18T03:03:57.185Z,186.67
2019-02-18T03:06:34.886Z,181.40
2019-02-18T03:09:11.970Z,189.82
2019-02-18T03:11:49.055Z,194.17
2019-02-18T03:14:26.133Z,186.52
2019-02-18T03:17:03.321Z,188.42
2019-02-18T03:19:40.402Z,208.07
2019-02-18T03:22:17.485Z,205.75
2019-02-18T03:25:21.603Z,198.13
2019-02-18T03:28:05.644Z,195.95
2019-02-18T03:31:03.619Z,187.30
2019-02-18T03:33:47.872Z,190.35
2019-02-18T03:36:24.957Z,180.65
2019-02-18T03:39:01.919Z,186.85
2019-02-18T03:41:41.049Z,189.97
2019-02-18T03:44:18.349Z,179.97
2019-02-18T03:46:55.325Z,190.82
2019-02-18T03:49:32.409Z,195.57
2019-02-18T03:52:09.395Z,181.22
2019-02-18T03:54:46.873Z,177.50
2019-02-18T03:57:23.876Z,182.35
2019-02-18T04:00:01.053Z,190.12
2019-02-18T04:02:39.549Z,182.60
2019-02-18T04:05:16.541Z,183.90
2019-02-18T04:07:53.632Z,185.88
2019-02-18T04:10:30.719Z,181.20
2019-02-18T04:13:07.900Z,172.53
2019-02-18T04:15:45.292Z,174.95
2019-02-18T04:18:22.287Z,182.12
2019-02-18T04:20:59.307Z,176.57
2019-02-18T04:23:36.434Z,170.28
2019-02-18T04:26:13.519Z,177.93
2019-02-18T04:28:50.602Z,170.02
2019-02-18T04:31:27.682Z,179.05
2019-02-18T04:34:04.819Z,167.22
2019-02-18T04:36:41.840Z,175.40
2019-02-18T04:39:18.932Z,178.02
2019-02-18T04:41:56.214Z,181.87
2019-02-18T04:44:34.550Z,171.87
2019-02-18T04:47:11.500Z,177.82
2019-02-18T04:49:49.620Z,180.12
2019-02-18T04:52:26.797Z,185.95
2019-02-18T04:55:04.388Z,180.97
2019-02-18T04:57:41.351Z,182.25
2019-02-18T05:00:18.368Z,181.77
2019-02-18T05:02:55.438Z,183.12
2019-02-18T05:05:32.521Z,173.10
2019-02-18T05:08:09.602Z,176.72
2019-02-18T05:10:46.600Z,172.17
2019-02-18T05:13:23.656Z,177.82
2019-02-18T05:16:00.745Z,179.78
2019-02-18T05:18:37.837Z,179.80
2019-02-18T05:21:14.920Z,178.23
2019-02-18T05:23:52.011Z,173.47
2019-02-18T05:26:49.770Z,181.47
2019-02-18T05:29:27.054Z,173.47
2019-02-18T05:32:04.253Z,164.60
2019-02-18T05:34:41.312Z,176.10
2019-02-18T05:37:18.414Z,176.22
2019-02-18T05:39:55.647Z,179.27
2019-02-18T05:42:32.778Z,182.35
2019-02-18T05:45:10.511Z,186.82
2019-02-18T05:47:47.550Z,177.50
2019-02-18T05:50:24.578Z,173.03
2019-02-18T05:53:01.624Z,176.42
2019-02-18T05:55:38.602Z,189.15
2019-02-18T05:58:15.588Z,183.00
2019-02-18T06:00:52.590Z,169.47
2019-02-18T06:03:29.627Z,170.62
2019-02-18T06:06:07.634Z,169.22
2019-02-18T06:08:44.627Z,173.70
2019-02-18T06:11:22.119Z,173.20
2019-02-18T06:13:59.204Z,175.75
2019-02-18T06:16:36.282Z,169.90
2019-02-18T06:19:13.370Z,170.70
2019-02-18T06:21:50.557Z,199.93
2019-02-18T06:24:28.050Z,343.37
2019-02-18T06:27:05.007Z,536.65
2019-02-18T06:29:42.096Z,471.45
2019-02-18T06:32:19.186Z,510.20
2019-02-18T06:34:56.275Z,362.90
2019-02-18T06:37:33.563Z,224.67
2019-02-18T06:40:10.863Z,208.38
2019-02-18T06:42:47.937Z,213.12
2019-02-18T06:45:38.533Z,203.27
2019-02-18T06:48:17.153Z,196.45
2019-02-18T06:50:54.233Z,171.95
2019-02-18T06:53:31.303Z,180.82
2019-02-18T06:56:08.402Z,186.12
2019-02-18T06:58:47.018Z,181.02
2019-02-18T07:01:26.663Z,175.47
2019-02-18T07:04:23.409Z,168.32
2019-02-18T07:07:02.018Z,180.12
2019-02-18T07:09:52.733Z,169.40
2019-02-18T07:12:31.451Z,173.60
2019-02-18T07:15:08.838Z,160.05
2019-02-18T07:17:45.926Z,168.80
2019-02-18T07:20:22.906Z,188.97
2019-02-18T07:23:00.189Z,201.15
2019-02-18T07:25:37.374Z,211.00
2019-02-18T07:28:14.347Z,215.90
2019-02-18T07:30:51.362Z,195.95
2019-02-18T07:33:28.823Z,180.75
2019-02-18T07:36:07.042Z,172.80
2019-02-18T07:38:44.019Z,166.53
2019-02-18T07:41:21.031Z,169.20
2019-02-18T07:43:59.469Z,154.47
2019-02-18T07:46:37.811Z,163.40
2019-02-18T07:49:15.040Z,153.60
2019-02-18T07:51:52.660Z,154.68
2019-02-18T07:54:30.714Z,165.05
2019-02-18T07:57:07.700Z,159.03
2019-02-18T07:59:44.770Z,146.20
2019-02-18T08:02:24.249Z,150.42
2019-02-18T08:05:02.367Z,163.40
2019-02-18T08:07:39.912Z,154.23
2019-02-18T08:10:16.881Z,155.93
2019-02-18T08:12:53.962Z,142.47
2019-02-18T08:15:31.062Z,143.55
2019-02-18T08:18:08.026Z,132.45
2019-02-18T08:20:45.116Z,141.90
2019-02-18T08:23:42.369Z,141.77
2019-02-18T08:26:34.202Z,134.57
2019-02-18T08:29:28.890Z,139.35
2019-02-18T08:32:05.984Z,129.15
2019-02-18T08:34:43.157Z,131.80
2019-02-18T08:37:20.255Z,122.85
2019-02-18T08:39:57.639Z,147.30
2019-02-18T08:42:34.713Z,157.00
2019-02-18T08:45:13.597Z,131.55
2019-02-18T08:47:50.634Z,130.18
2019-02-18T08:50:27.715Z,130.40
2019-02-18T08:53:04.791Z,133.70
2019-02-18T08:55:41.881Z,122.35
2019-02-18T08:58:19.061Z,116.05
2019-02-18T09:01:02.505Z,122.10
2019-02-18T09:03:35.029Z,112.12
2019-02-18T09:06:12.066Z,117.87
2019-02-18T09:08:49.130Z,117.93
2019-02-18T09:11:26.329Z,120.17
2019-02-18T09:14:03.401Z,128.00
2019-02-18T09:16:40.680Z,127.53
2019-02-18T09:19:17.770Z,115.88
2019-02-18T09:21:59.352Z,115.57
2019-02-18T09:24:44.326Z,112.20
2019-02-18T09:27:21.416Z,114.80
2019-02-18T09:30:08.624Z,123.60
2019-02-18T09:32:43.799Z,123.72
2019-02-18T09:35:20.803Z,121.15
2019-02-18T09:37:57.835Z,118.67
2019-02-18T09:40:44.321Z,125.18
2019-02-18T09:43:13.741Z,125.33
2019-02-18T09:45:50.755Z,131.43
2019-02-18T09:48:27.716Z,123.95
2019-02-18T09:51:04.727Z,122.33
2019-02-18T09:53:41.752Z,137.65
2019-02-18T09:56:18.770Z,127.80
2019-02-18T09:58:55.832Z,128.18
2019-02-18T10:01:32.817Z,114.62
2019-02-18T10:04:09.825Z,135.88
2019-02-18T10:06:46.872Z,139.10
2019-02-18T10:09:23.957Z,124.38
2019-02-18T10:12:01.137Z,122.92
2019-02-18T10:14:38.186Z,116.33
2019-02-18T10:17:16.230Z,124.02
2019-02-18T10:19:53.297Z,111.30
2019-02-18T10:22:30.395Z,123.70
2019-02-18T10:25:11.820Z,115.92
2019-02-18T10:27:48.961Z,109.52
2019-02-18T10:30:26.049Z,107.50
2019-02-18T10:33:03.838Z,109.80
2019-02-18T10:35:41.037Z,114.95
2019-02-18T10:38:20.290Z,172.82
2019-02-18T10:41:06.368Z,181.65
2019-02-18T10:43:36.157Z,112.45
2019-02-18T10:46:13.263Z,98.65
2019-02-18T10:48:50.336Z,93.30
2019-02-18T10:51:27.384Z,79.35
2019-02-18T10:54:04.535Z,68.78
2019-02-18T10:56:41.571Z,48.33
2019-02-18T10:59:18.769Z,58.15
2019-02-18T11:01:55.840Z,58.10
2019-02-18T11:04:32.936Z,52.33
2019-02-18T11:07:10.112Z,50.10
2019-02-18T11:09:47.196Z,43.92
2019-02-18T11:12:24.288Z,43.33
2019-02-18T11:15:01.364Z,43.50
2019-02-18T11:17:39.205Z,50.67
2019-02-18T11:20:16.290Z,53.60
2019-02-18T11:22:53.315Z,52.08
2019-02-18T11:25:30.507Z,56.90
2019-02-18T11:28:07.770Z,53.90
2019-02-18T11:30:44.797Z,61.65
2019-02-18T11:33:21.868Z,56.42
2019-02-18T11:35:58.953Z,49.40
2019-02-18T11:38:36.444Z,53.13
2019-02-18T11:41:13.520Z,48.10
2019-02-18T11:43:50.611Z,49.20
2019-02-18T11:46:28.101Z,46.88
2019-02-18T11:49:05.924Z,59.80
2019-02-18T11:51:43.306Z,50.77
2019-02-18T11:54:20.337Z,48.98
2019-02-18T11:56:57.457Z,46.00
2019-02-18T11:59:34.532Z,55.60
2019-02-18T12:02:11.648Z,59.55
2019-02-18T12:04:48.692Z,60.92
2019-02-18T12:07:25.781Z,55.12
2019-02-18T12:10:02.766Z,43.60
2019-02-18T12:12:39.716Z,45.08
2019-02-18T12:15:17.187Z,47.45
2019-02-18T12:17:54.212Z,53.83
2019-02-18T12:20:32.202Z,57.60
2019-02-18T12:23:09.236Z,55.70
2019-02-18T12:25:46.201Z,53.30
2019-02-18T12:28:23.197Z,52.48
2019-02-18T12:31:00.359Z,49.70
2019-02-18T12:33:37.859Z,54.50
2019-02-18T12:36:14.882Z,56.75
2019-02-18T12:38:51.904Z,58.95
2019-02-18T12:41:28.986Z,51.13
2019-02-18T12:44:06.285Z,53.65
2019-02-18T12:46:43.251Z,61.70
2019-02-18T12:49:20.342Z,57.23
2019-02-18T12:51:57.767Z,54.25
2019-02-18T12:54:34.735Z,55.00
2019-02-18T12:57:11.944Z,56.05
2019-02-18T12:59:49.010Z,50.85
2019-02-18T13:02:26.356Z,53.78
2019-02-18T13:05:03.853Z,56.73
2019-02-18T13:07:41.379Z,50.43
2019-02-18T13:10:19.390Z,50.67
2019-02-18T13:12:56.441Z,49.53
2019-02-18T13:15:33.519Z,47.20
2019-02-18T13:18:10.701Z,52.73
2019-02-18T13:20:47.900Z,48.25
2019-02-18T13:23:24.950Z,54.85
2019-02-18T13:26:01.967Z,45.17
2019-02-18T13:28:39.035Z,40.00
2019-02-18T13:31:16.061Z,48.00
2019-02-18T13:33:53.099Z,40.12
2019-02-18T13:36:30.289Z,37.08
2019-02-18T13:39:08.389Z,43.25
2019-02-18T13:41:45.985Z,38.00
2019-02-18T13:44:23.687Z,49.15
2019-02-18T13:47:02.188Z,53.45
2019-02-18T13:49:39.494Z,58.83
2019-02-18T13:52:16.666Z,54.10
2019-02-18T13:54:53.719Z,56.88
2019-02-18T13:57:30.770Z,68.52
2019-02-18T14:00:22.716Z,56.77
2019-02-18T14:02:59.725Z,60.78
2019-02-18T14:05:36.843Z,49.42
2019-02-18T14:08:13.820Z,54.98
2019-02-18T14:10:50.839Z,50.33
2019-02-18T14:13:27.849Z,47.67
2019-02-18T14:16:04.885Z,56.63
2019-02-18T14:18:41.856Z,44.23
2019-02-18T14:21:18.874Z,40.98
2019-02-18T14:23:55.864Z,38.70
2019-02-18T14:26:33.151Z,34.95
2019-02-18T14:29:10.129Z,35.58
2019-02-18T14:31:47.329Z,36.43
2019-02-18T14:34:24.285Z,38.50
2019-02-18T14:37:01.276Z,41.37
2019-02-18T14:39:38.272Z,55.23
2019-02-18T14:42:15.501Z,49.50
2019-02-18T14:44:52.809Z,43.00
2019-02-18T14:47:29.834Z,44.63
2019-02-18T14:50:09.857Z,45.55
2019-02-18T14:52:47.285Z,48.08
2019-02-18T14:55:24.375Z,48.52
2019-02-18T14:58:01.667Z,63.60
2019-02-18T15:00:39.562Z,67.15
2019-02-18T15:03:17.152Z,62.30
2019-02-18T15:05:54.342Z,66.07
2019-02-18T15:08:31.437Z,68.60
2019-02-18T15:11:08.719Z,64.67
2019-02-18T15:13:45.796Z,74.77
2019-02-18T15:16:22.887Z,67.85
2019-02-18T15:18:59.965Z,72.12
2019-02-18T15:21:37.446Z,87.92
2019-02-18T15:24:14.639Z,76.70
2019-02-18T15:26:51.721Z,80.77
2019-02-18T15:29:28.809Z,86.42
2019-02-18T15:32:06.094Z,90.75
2019-02-18T15:34:43.587Z,88.10
2019-02-18T15:37:21.484Z,84.62
2019-02-18T15:39:58.992Z,96.60
2019-02-18T15:42:41.825Z,97.20
2019-02-18T15:45:15.192Z,89.70
2019-02-18T15:47:52.478Z,98.25
2019-02-18T15:50:29.672Z,98.78
2019-02-18T15:53:06.753Z,119.53
2019-02-18T16:22:57.785Z,158.05
2019-02-18T16:25:33.661Z,145.02
2019-02-18T16:28:10.029Z,131.03
2019-02-18T16:30:45.872Z,126.78
2019-02-18T16:33:21.739Z,142.32
2019-02-18T16:35:57.592Z,138.03
2019-02-18T16:38:33.436Z,185.07
2019-02-18T16:41:09.249Z,172.02
2019-02-18T16:43:45.321Z,140.95
2019-02-18T16:46:21.094Z,143.65
2019-02-18T16:48:57.276Z,547.77
2019-02-18T16:51:33.322Z,523.73
2019-02-18T16:54:09.142Z,595.67
2019-02-18T16:56:44.939Z,393.77
2019-02-18T16:59:20.788Z,258.40
2019-02-18T17:01:56.697Z,143.15
2019-02-18T17:04:32.486Z,162.18
2019-02-18T17:07:09.165Z,215.82
2019-02-18T17:09:44.949Z,178.45
2019-02-18T17:12:20.743Z,225.32
2019-02-18T17:14:56.553Z,182.43
2019-02-18T17:17:32.472Z,134.97
2019-02-18T17:20:08.754Z,128.35
2019-02-18T17:22:44.527Z,138.47
2019-02-18T17:25:20.290Z,145.38
2019-02-18T17:27:56.338Z,122.98
2019-02-18T17:30:32.146Z,109.57
2019-02-18T17:33:07.947Z,109.85
2019-02-18T17:35:43.742Z,110.25
2019-02-18T17:38:19.525Z,115.62
2019-02-18T17:40:55.306Z,92.82
2019-02-18T17:43:31.184Z,101.38
2019-02-18T17:46:07.017Z,97.12
2019-02-18T17:48:42.806Z,98.42
2019-02-18T17:51:18.546Z,95.65
2019-02-18T17:53:54.342Z,95.30
2019-02-18T17:56:30.106Z,97.97
2019-02-18T17:59:06.050Z,104.67
2019-02-18T18:01:41.893Z,97.35
2019-02-18T18:04:17.743Z,89.77
2019-02-18T18:06:53.500Z,93.55
2019-02-18T18:09:29.357Z,89.13
2019-02-18T18:12:05.089Z,85.60
2019-02-18T18:14:40.865Z,83.90
2019-02-18T18:17:17.018Z,95.75
2019-02-18T18:19:52.836Z,109.20
2019-02-18T18:22:28.600Z,97.75
2019-02-18T18:25:05.001Z,98.10
2019-02-18T18:27:41.065Z,95.53
2019-02-18T18:30:18.819Z,100.77
2019-02-18T18:32:54.639Z,106.85
2019-02-18T18:35:30.462Z,108.65
2019-02-18T18:38:06.236Z,115.20
2019-02-18T18:40:42.078Z,117.50
2019-02-18T18:43:17.932Z,118.25
2019-02-18T18:45:53.671Z,102.27
2019-02-18T18:48:29.434Z,103.47
2019-02-18T18:51:05.234Z,102.38
2019-02-18T18:53:41.069Z,225.20
2019-02-18T18:56:17.425Z,420.50
2019-02-18T18:58:53.203Z,220.50
2019-02-18T19:01:28.995Z,150.00
2019-02-18T19:04:04.756Z,147.70
2019-02-18T19:06:41.468Z,142.28
2019-02-18T19:09:17.232Z,130.18
2019-02-18T19:11:52.972Z,134.47
2019-02-18T19:14:28.790Z,158.30
2019-02-18T19:17:04.518Z,178.07
2019-02-18T19:19:40.497Z,180.18
2019-02-18T19:22:16.223Z,188.62
2019-02-18T19:24:52.401Z,171.90
2019-02-18T19:27:28.150Z,177.57
2019-02-18T19:30:08.574Z,146.32
2019-02-18T19:32:45.478Z,144.80
2019-02-18T19:35:21.280Z,170.62
2019-02-18T19:37:57.094Z,252.20
2019-02-18T19:40:33.043Z,327.68
2019-02-18T19:43:08.906Z,291.02
2019-02-18T19:45:44.759Z,443.70
2019-02-18T19:48:20.611Z,562.25
2019-02-18T19:50:56.464Z,677.40
2019-02-18T19:53:32.661Z,783.27
2019-02-18T19:56:08.675Z,769.25
2019-02-18T19:58:44.433Z,531.80
2019-02-18T20:01:20.297Z,447.50
2019-02-18T20:03:56.138Z,464.48
2019-02-18T20:06:32.299Z,547.23
2019-02-18T20:09:09.688Z,693.37
2019-02-18T20:11:45.753Z,581.02
2019-02-18T20:14:21.912Z,567.42
2019-02-18T20:16:57.762Z,443.87
2019-02-18T20:19:33.621Z,482.17
2019-02-18T20:22:09.995Z,454.23
2019-02-18T20:24:45.727Z,399.98
2019-02-18T20:27:22.302Z,359.75
2019-02-18T20:29:58.330Z,401.20
2019-02-18T20:32:34.227Z,324.02
2019-02-18T20:35:11.214Z,394.18
2019-02-18T20:37:47.157Z,287.23
2019-02-18T20:40:23.013Z,277.73
2019-02-18T20:42:58.868Z,294.95
2019-02-18T20:45:34.730Z,324.50
2019-02-18T20:48:10.574Z,252.85
2019-02-18T20:50:46.523Z,303.15
2019-02-18T20:53:22.375Z,312.72
2019-02-18T20:55:58.228Z,261.00
2019-02-18T20:58:34.084Z,224.05
2019-02-18T21:01:10.248Z,200.60
2019-02-18T21:03:46.097Z,197.02
2019-02-18T21:06:21.955Z,236.43
2019-02-18T21:08:58.424Z,211.65
2019-02-18T21:11:34.292Z,190.82
2019-02-18T21:14:15.865Z,220.22
2019-02-18T21:16:47.731Z,230.45
2019-02-18T21:19:23.595Z,181.95
2019-02-18T21:21:59.429Z,154.38
2019-02-18T21:24:35.591Z,150.22
2019-02-18T21:27:11.445Z,153.20
2019-02-18T21:29:47.621Z,133.75
2019-02-18T21:32:23.462Z,138.47
2019-02-18T21:34:59.241Z,142.68
2019-02-18T21:37:35.581Z,143.78
2019-02-18T21:40:12.160Z,137.57
2019-02-18T21:42:48.018Z,129.25
2019-02-18T21:45:23.768Z,125.70
2019-02-18T21:47:59.610Z,120.50
2019-02-18T21:50:35.361Z,120.42
2019-02-18T21:53:11.223Z,120.55
2019-02-18T21:55:46.965Z,106.27
2019-02-18T21:58:23.237Z,110.15
2019-02-18T22:00:59.087Z,103.87
2019-02-18T22:03:34.991Z,109.40
2019-02-18T22:06:10.791Z,115.47
2019-02-18T22:08:46.760Z,126.67
2019-02-18T22:11:22.605Z,124.92
2019-02-18T22:13:58.468Z,106.63
2019-02-18T22:16:34.312Z,111.30
2019-02-18T22:19:10.473Z,137.65
2019-02-18T22:21:46.324Z,127.87
2019-02-18T22:24:22.493Z,124.10
2019-02-18T22:26:58.336Z,117.90
2019-02-18T22:29:34.620Z,120.60
2019-02-18T22:32:10.575Z,109.37
2019-02-18T22:34:46.420Z,89.15
2019-02-18T22:37:22.282Z,101.65
2019-02-18T22:39:58.538Z,88.05
2019-02-18T22:42:34.394Z,87.25
2019-02-18T22:45:11.557Z,89.28
2019-02-18T22:47:47.318Z,85.45
2019-02-18T22:50:23.388Z,85.03
2019-02-18T22:52:59.231Z,85.95
2019-02-18T22:55:35.040Z,89.55
2019-02-18T22:58:10.843Z,85.60
2019-02-18T23:00:54.885Z,89.15
2019-02-18T23:03:31.777Z,101.38
2019-02-18T23:06:07.631Z,104.70
2019-02-18T23:08:43.479Z,87.50
2019-02-18T23:11:19.345Z,86.10
2019-02-18T23:13:55.181Z,81.78
2019-02-18T23:16:31.043Z,76.40
2019-02-18T23:19:07.196Z,87.53
2019-02-18T23:21:43.045Z,89.15
2019-02-18T23:24:18.900Z,85.77
2019-02-18T23:26:54.658Z,82.10
2019-02-18T23:29:30.510Z,78.97
2019-02-18T23:32:06.370Z,74.90
2019-02-18T23:34:42.114Z,76.90
2019-02-18T23:37:17.967Z,84.17
2019-02-18T23:39:53.833Z,73.30
2019-02-18T23:42:29.678Z,73.07
2019-02-18T23:45:05.438Z,77.53
2019-02-18T23:47:41.397Z,75.20
2019-02-18T23:50:17.248Z,69.70
2019-02-18T23:52:53.615Z,78.25
2019-02-18T23:55:29.353Z,71.85
2019-02-18T23:58:05.204Z,73.50
